Location Isle ofWight, ISLE OF WIGHT, UK

ob UISISLE1 161100Z AUTO 20000KT FEW 08/07 A2974 RMK SLPNO 

2018.12.16 1100 UTC
Wind from the SSW (204 degrees) at Calm MPH ( KT) gusting to 0.0 MPH (0 KT)
Visibility    Mile(s)
Sky Conditions  partly cloudy
Temperature 46.2 F (8 C)
Dew Point 44.8 F (7 C)
Relative Humidity 95%
Pressure   29.746 in. Hg (1007 hPa)
Rain  0.01 in.
Daily Rain 0.039 in.

Station Name  Isle of Wight Weather
Longitude, Latitude  -1.27, 50.72
Elevation 45
Station URL http://www.isleofwightweather.co.uk
Software Type WeatherDisplay:10.37R